sensor_id;sensor_type;location;lat;lon;timestamp;temperature;humidity
27978;DHT22;15314;49.248;6.968;2022-08-21T00:00:20;17.50;77.80
27978;DHT22;15314;49.248;6.968;2022-08-21T00:01:25;17.50;77.80
27978;DHT22;15314;49.248;6.968;2022-08-21T00:02:27;17.50;78.30
27978;DHT22;15314;49.248;6.968;2022-08-21T00:03:27;17.50;78.30
27978;DHT22;15314;49.248;6.968;2022-08-21T00:04:29;17.40;78.10
27978;DHT22;15314;49.248;6.968;2022-08-21T00:05:31;17.30;78.20
27978;DHT22;15314;49.248;6.968;2022-08-21T00:06:32;17.30;78.30
27978;DHT22;15314;49.248;6.968;2022-08-21T00:07:34;17.20;79.00
27978;DHT22;15314;49.248;6.968;2022-08-21T00:08:35;17.20;79.90
27978;DHT22;15314;49.248;6.968;2022-08-21T00:09:36;17.10;79.80
27978;DHT22;15314;49.248;6.968;2022-08-21T00:10:39;17.10;79.40
27978;DHT22;15314;49.248;6.968;2022-08-21T00:11:40;17.00;79.40
27978;DHT22;15314;49.248;6.968;2022-08-21T00:12:42;17.00;79.70
27978;DHT22;15314;49.248;6.968;2022-08-21T00:13:43;17.00;80.20
27978;DHT22;15314;49.248;6.968;2022-08-21T00:14:44;16.90;80.80
27978;DHT22;15314;49.248;6.968;2022-08-21T00:15:45;16.80;80.60
27978;DHT22;15314;49.248;6.968;2022-08-21T00:16:46;16.80;80.00
27978;DHT22;15314;49.248;6.968;2022-08-21T00:17:47;16.80;79.90
27978;DHT22;15314;49.248;6.968;2022-08-21T00:18:48;16.80;79.80
27978;DHT22;15314;49.248;6.968;2022-08-21T00:19:48;16.90;79.60
27978;DHT22;15314;49.248;6.968;2022-08-21T00:20:49;16.80;79.60
27978;DHT22;15314;49.248;6.968;2022-08-21T00:21:53;16.80;80.50
27978;DHT22;15314;49.248;6.968;2022-08-21T00:22:54;16.80;79.90
27978;DHT22;15314;49.248;6.968;2022-08-21T00:23:54;16.80;79.90
27978;DHT22;15314;49.248;6.968;2022-08-21T00:24:55;16.90;79.60
27978;DHT22;15314;49.248;6.968;2022-08-21T00:25:56;16.90;79.70
27978;DHT22;15314;49.248;6.968;2022-08-21T00:26:56;16.90;79.70
27978;DHT22;15314;49.248;6.968;2022-08-21T00:27:57;16.90;79.90
27978;DHT22;15314;49.248;6.968;2022-08-21T00:28:58;16.80;80.40
27978;DHT22;15314;49.248;6.968;2022-08-21T00:29:58;16.70;80.10
27978;DHT22;15314;49.248;6.968;2022-08-21T00:31:00;16.80;80.50
27978;DHT22;15314;49.248;6.968;2022-08-21T00:32:00;16.70;80.60
27978;DHT22;15314;49.248;6.968;2022-08-21T00:33:02;16.70;80.50
27978;DHT22;15314;49.248;6.968;2022-08-21T00:34:03;16.70;80.30
27978;DHT22;15314;49.248;6.968;2022-08-21T00:35:11;16.80;80.50
27978;DHT22;15314;49.248;6.968;2022-08-21T00:36:13;16.70;80.60
27978;DHT22;15314;49.248;6.968;2022-08-21T00:37:14;16.70;80.20
27978;DHT22;15314;49.248;6.968;2022-08-21T00:38:14;16.80;80.20
27978;DHT22;15314;49.248;6.968;2022-08-21T00:39:15;16.80;80.10
27978;DHT22;15314;49.248;6.968;2022-08-21T00:40:19;16.80;80.00
27978;DHT22;15314;49.248;6.968;2022-08-21T00:41:20;16.80;80.40
27978;DHT22;15314;49.248;6.968;2022-08-21T00:42:21;16.80;80.60
27978;DHT22;15314;49.248;6.968;2022-08-21T00:43:25;16.70;80.70
27978;DHT22;15314;49.248;6.968;2022-08-21T00:44:27;16.70;80.70
27978;DHT22;15314;49.248;6.968;2022-08-21T00:45:28;16.70;80.80
27978;DHT22;15314;49.248;6.968;2022-08-21T00:46:30;16.70;81.50
27978;DHT22;15314;49.248;6.968;2022-08-21T00:47:31;16.60;82.10
27978;DHT22;15314;49.248;6.968;2022-08-21T00:48:32;16.50;82.10
27978;DHT22;15314;49.248;6.968;2022-08-21T00:49:33;16.50;82.20
27978;DHT22;15314;49.248;6.968;2022-08-21T00:50:37;16.50;82.10
27978;DHT22;15314;49.248;6.968;2022-08-21T00:51:49;16.40;82.10
27978;DHT22;15314;49.248;6.968;2022-08-21T00:52:51;16.40;81.80
27978;DHT22;15314;49.248;6.968;2022-08-21T00:53:56;16.50;81.80
27978;DHT22;15314;49.248;6.968;2022-08-21T00:54:58;16.50;81.70
27978;DHT22;15314;49.248;6.968;2022-08-21T00:55:59;16.50;81.70
27978;DHT22;15314;49.248;6.968;2022-08-21T00:57:07;16.50;81.40
27978;DHT22;15314;49.248;6.968;2022-08-21T00:58:11;16.50;81.50
27978;DHT22;15314;49.248;6.968;2022-08-21T00:59:12;16.50;82.00
27978;DHT22;15314;49.248;6.968;2022-08-21T01:00:20;16.60;82.10
27978;DHT22;15314;49.248;6.968;2022-08-21T01:01:21;16.40;82.30
27978;DHT22;15314;49.248;6.968;2022-08-21T01:02:22;16.40;83.10
27978;DHT22;15314;49.248;6.968;2022-08-21T01:03:24;16.40;83.40
27978;DHT22;15314;49.248;6.968;2022-08-21T01:04:26;16.30;83.50
27978;DHT22;15314;49.248;6.968;2022-08-21T01:05:27;16.30;83.30
27978;DHT22;15314;49.248;6.968;2022-08-21T01:06:27;16.30;82.80
27978;DHT22;15314;49.248;6.968;2022-08-21T01:07:28;16.40;82.90
27978;DHT22;15314;49.248;6.968;2022-08-21T01:08:29;16.30;82.40
27978;DHT22;15314;49.248;6.968;2022-08-21T01:09:30;16.40;82.40
27978;DHT22;15314;49.248;6.968;2022-08-21T01:10:31;16.30;82.60
27978;DHT22;15314;49.248;6.968;2022-08-21T01:11:32;16.30;82.50
27978;DHT22;15314;49.248;6.968;2022-08-21T01:12:33;16.30;82.80
27978;DHT22;15314;49.248;6.968;2022-08-21T01:13:37;16.30;82.30
27978;DHT22;15314;49.248;6.968;2022-08-21T01:14:44;16.30;83.10
27978;DHT22;15314;49.248;6.968;2022-08-21T01:15:48;16.30;83.70
27978;DHT22;15314;49.248;6.968;2022-08-21T01:16:52;16.10;83.90
27978;DHT22;15314;49.248;6.968;2022-08-21T01:17:53;16.10;83.80
27978;DHT22;15314;49.248;6.968;2022-08-21T01:18:54;16.20;83.60
27978;DHT22;15314;49.248;6.968;2022-08-21T01:19:59;16.10;83.70
27978;DHT22;15314;49.248;6.968;2022-08-21T01:22:07;16.10;83.60
27978;DHT22;15314;49.248;6.968;2022-08-21T01:23:07;16.10;83.40
27978;DHT22;15314;49.248;6.968;2022-08-21T01:24:08;16.20;83.80
27978;DHT22;15314;49.248;6.968;2022-08-21T01:25:11;16.10;83.90
27978;DHT22;15314;49.248;6.968;2022-08-21T01:26:15;16.10;83.70
27978;DHT22;15314;49.248;6.968;2022-08-21T01:27:16;16.10;84.00
27978;DHT22;15314;49.248;6.968;2022-08-21T01:28:17;16.10;83.40
27978;DHT22;15314;49.248;6.968;2022-08-21T01:29:39;16.20;83.40
27978;DHT22;15314;49.248;6.968;2022-08-21T01:30:43;16.10;84.20
27978;DHT22;15314;49.248;6.968;2022-08-21T01:31:44;16.10;83.80
27978;DHT22;15314;49.248;6.968;2022-08-21T01:32:44;16.10;84.00
27978;DHT22;15314;49.248;6.968;2022-08-21T01:33:45;16.20;84.20
27978;DHT22;15314;49.248;6.968;2022-08-21T01:34:48;16.10;84.40
27978;DHT22;15314;49.248;6.968;2022-08-21T01:35:49;16.00;84.60
27978;DHT22;15314;49.248;6.968;2022-08-21T01:36:50;16.00;84.60
27978;DHT22;15314;49.248;6.968;2022-08-21T01:37:50;16.00;84.50
27978;DHT22;15314;49.248;6.968;2022-08-21T01:38:52;16.00;85.10
27978;DHT22;15314;49.248;6.968;2022-08-21T01:39:52;15.90;84.80
27978;DHT22;15314;49.248;6.968;2022-08-21T01:40:53;16.00;85.40
27978;DHT22;15314;49.248;6.968;2022-08-21T01:41:54;15.90;86.20
27978;DHT22;15314;49.248;6.968;2022-08-21T01:42:55;15.90;86.40
27978;DHT22;15314;49.248;6.968;2022-08-21T01:43:56;15.80;87.00
27978;DHT22;15314;49.248;6.968;2022-08-21T01:44:56;15.70;87.30
27978;DHT22;15314;49.248;6.968;2022-08-21T01:45:57;15.70;87.40
27978;DHT22;15314;49.248;6.968;2022-08-21T01:47:00;15.70;87.10
27978;DHT22;15314;49.248;6.968;2022-08-21T01:48:00;15.70;87.30
27978;DHT22;15314;49.248;6.968;2022-08-21T01:49:04;15.70;86.80
27978;DHT22;15314;49.248;6.968;2022-08-21T01:50:07;15.70;87.20
27978;DHT22;15314;49.248;6.968;2022-08-21T01:51:09;15.60;87.50
27978;DHT22;15314;49.248;6.968;2022-08-21T01:52:11;15.60;87.20
27978;DHT22;15314;49.248;6.968;2022-08-21T01:53:12;15.60;87.40
27978;DHT22;15314;49.248;6.968;2022-08-21T01:54:13;15.60;87.60
27978;DHT22;15314;49.248;6.968;2022-08-21T01:55:16;15.60;87.40
27978;DHT22;15314;49.248;6.968;2022-08-21T01:56:18;15.60;87.80
27978;DHT22;15314;49.248;6.968;2022-08-21T01:57:18;15.50;88.00
27978;DHT22;15314;49.248;6.968;2022-08-21T01:58:19;15.50;88.30
27978;DHT22;15314;49.248;6.968;2022-08-21T01:59:21;15.50;88.50
27978;DHT22;15314;49.248;6.968;2022-08-21T02:00:25;15.40;88.90
27978;DHT22;15314;49.248;6.968;2022-08-21T02:01:25;15.40;89.20
27978;DHT22;15314;49.248;6.968;2022-08-21T02:02:26;15.30;89.40
27978;DHT22;15314;49.248;6.968;2022-08-21T02:03:28;15.30;89.90
27978;DHT22;15314;49.248;6.968;2022-08-21T02:04:29;15.40;89.60
27978;DHT22;15314;49.248;6.968;2022-08-21T02:05:30;15.40;90.00
27978;DHT22;15314;49.248;6.968;2022-08-21T02:06:31;15.40;90.10
27978;DHT22;15314;49.248;6.968;2022-08-21T02:07:44;15.40;90.00
27978;DHT22;15314;49.248;6.968;2022-08-21T02:08:46;15.40;90.20
27978;DHT22;15314;49.248;6.968;2022-08-21T02:09:46;15.40;90.30
27978;DHT22;15314;49.248;6.968;2022-08-21T02:10:47;15.40;90.40
27978;DHT22;15314;49.248;6.968;2022-08-21T02:11:48;15.30;90.60
27978;DHT22;15314;49.248;6.968;2022-08-21T02:12:48;15.30;90.50
27978;DHT22;15314;49.248;6.968;2022-08-21T02:13:50;15.30;90.60
27978;DHT22;15314;49.248;6.968;2022-08-21T02:14:50;15.20;90.50
27978;DHT22;15314;49.248;6.968;2022-08-21T02:15:51;15.20;90.60
27978;DHT22;15314;49.248;6.968;2022-08-21T02:16:51;15.20;90.30
27978;DHT22;15314;49.248;6.968;2022-08-21T02:17:54;15.30;90.60
27978;DHT22;15314;49.248;6.968;2022-08-21T02:18:55;15.30;90.40
27978;DHT22;15314;49.248;6.968;2022-08-21T02:19:56;15.30;90.20
27978;DHT22;15314;49.248;6.968;2022-08-21T02:20:57;15.40;90.20
27978;DHT22;15314;49.248;6.968;2022-08-21T02:21:57;15.40;90.20
27978;DHT22;15314;49.248;6.968;2022-08-21T02:22:58;15.30;90.30
27978;DHT22;15314;49.248;6.968;2022-08-21T02:23:58;15.20;90.40
27978;DHT22;15314;49.248;6.968;2022-08-21T02:24:59;15.30;90.70
27978;DHT22;15314;49.248;6.968;2022-08-21T02:26:02;15.30;90.90
27978;DHT22;15314;49.248;6.968;2022-08-21T02:27:03;15.20;90.80
27978;DHT22;15314;49.248;6.968;2022-08-21T02:28:15;15.30;90.50
27978;DHT22;15314;49.248;6.968;2022-08-21T02:29:15;15.30;90.70
27978;DHT22;15314;49.248;6.968;2022-08-21T02:30:30;15.30;90.80
27978;DHT22;15314;49.248;6.968;2022-08-21T02:31:33;15.30;90.80
27978;DHT22;15314;49.248;6.968;2022-08-21T02:32:33;15.20;90.60
27978;DHT22;15314;49.248;6.968;2022-08-21T02:33:34;15.20;90.60
27978;DHT22;15314;49.248;6.968;2022-08-21T02:34:35;15.20;90.80
27978;DHT22;15314;49.248;6.968;2022-08-21T02:35:37;15.30;90.80
27978;DHT22;15314;49.248;6.968;2022-08-21T02:36:37;15.30;90.60
27978;DHT22;15314;49.248;6.968;2022-08-21T02:37:56;15.20;90.80
27978;DHT22;15314;49.248;6.968;2022-08-21T02:38:57;15.20;90.60
27978;DHT22;15314;49.248;6.968;2022-08-21T02:40:00;15.20;90.70
27978;DHT22;15314;49.248;6.968;2022-08-21T02:41:01;15.20;90.80
27978;DHT22;15314;49.248;6.968;2022-08-21T02:42:02;15.20;90.80
27978;DHT22;15314;49.248;6.968;2022-08-21T02:43:04;15.20;90.90
27978;DHT22;15314;49.248;6.968;2022-08-21T02:44:04;15.10;91.10
27978;DHT22;15314;49.248;6.968;2022-08-21T02:45:07;15.20;90.90
27978;DHT22;15314;49.248;6.968;2022-08-21T02:46:09;15.10;91.00
27978;DHT22;15314;49.248;6.968;2022-08-21T02:47:10;15.20;90.80
27978;DHT22;15314;49.248;6.968;2022-08-21T02:48:14;15.20;90.70
27978;DHT22;15314;49.248;6.968;2022-08-21T02:49:14;15.20;90.70
27978;DHT22;15314;49.248;6.968;2022-08-21T02:50:19;15.20;90.70
27978;DHT22;15314;49.248;6.968;2022-08-21T02:51:20;15.20;90.70
27978;DHT22;15314;49.248;6.968;2022-08-21T02:52:22;15.20;91.00
27978;DHT22;15314;49.248;6.968;2022-08-21T02:53:25;15.10;90.80
27978;DHT22;15314;49.248;6.968;2022-08-21T02:54:26;15.20;91.00
27978;DHT22;15314;49.248;6.968;2022-08-21T02:55:29;15.20;91.00
27978;DHT22;15314;49.248;6.968;2022-08-21T02:56:30;15.10;91.30
27978;DHT22;15314;49.248;6.968;2022-08-21T02:57:31;15.20;91.10
27978;DHT22;15314;49.248;6.968;2022-08-21T02:58:38;15.10;91.20
27978;DHT22;15314;49.248;6.968;2022-08-21T02:59:40;15.10;91.50
27978;DHT22;15314;49.248;6.968;2022-08-21T03:00:41;15.10;91.40
27978;DHT22;15314;49.248;6.968;2022-08-21T03:01:43;15.10;91.80
27978;DHT22;15314;49.248;6.968;2022-08-21T03:02:44;15.10;91.60
27978;DHT22;15314;49.248;6.968;2022-08-21T03:03:47;15.10;91.80
27978;DHT22;15314;49.248;6.968;2022-08-21T03:04:50;15.00;91.90
27978;DHT22;15314;49.248;6.968;2022-08-21T03:05:51;15.00;92.00
27978;DHT22;15314;49.248;6.968;2022-08-21T03:06:51;15.00;92.00
27978;DHT22;15314;49.248;6.968;2022-08-21T03:07:52;14.90;92.00
27978;DHT22;15314;49.248;6.968;2022-08-21T03:08:53;14.90;92.20
27978;DHT22;15314;49.248;6.968;2022-08-21T03:09:54;14.90;92.00
27978;DHT22;15314;49.248;6.968;2022-08-21T03:10:55;15.00;91.80
27978;DHT22;15314;49.248;6.968;2022-08-21T03:11:56;14.90;91.80
27978;DHT22;15314;49.248;6.968;2022-08-21T03:12:59;14.90;91.70
27978;DHT22;15314;49.248;6.968;2022-08-21T03:14:00;14.90;91.90
27978;DHT22;15314;49.248;6.968;2022-08-21T03:15:09;14.90;92.00
27978;DHT22;15314;49.248;6.968;2022-08-21T03:16:10;14.80;92.10
27978;DHT22;15314;49.248;6.968;2022-08-21T03:17:10;14.90;92.00
27978;DHT22;15314;49.248;6.968;2022-08-21T03:18:12;14.80;92.30
27978;DHT22;15314;49.248;6.968;2022-08-21T03:19:13;14.80;92.40
27978;DHT22;15314;49.248;6.968;2022-08-21T03:20:15;14.80;92.50
27978;DHT22;15314;49.248;6.968;2022-08-21T03:21:16;14.80;92.60
27978;DHT22;15314;49.248;6.968;2022-08-21T03:22:19;14.80;92.40
27978;DHT22;15314;49.248;6.968;2022-08-21T03:23:19;14.80;92.40
27978;DHT22;15314;49.248;6.968;2022-08-21T03:24:20;14.80;92.60
27978;DHT22;15314;49.248;6.968;2022-08-21T03:25:23;14.70;92.70
27978;DHT22;15314;49.248;6.968;2022-08-21T03:26:24;14.70;92.60
27978;DHT22;15314;49.248;6.968;2022-08-21T03:27:26;14.80;92.60
27978;DHT22;15314;49.248;6.968;2022-08-21T03:28:27;14.80;92.70
27978;DHT22;15314;49.248;6.968;2022-08-21T03:29:27;14.80;92.50
27978;DHT22;15314;49.248;6.968;2022-08-21T03:30:29;14.80;92.50
27978;DHT22;15314;49.248;6.968;2022-08-21T03:31:31;14.70;92.60
27978;DHT22;15314;49.248;6.968;2022-08-21T03:32:32;14.70;92.90
27978;DHT22;15314;49.248;6.968;2022-08-21T03:33:32;14.60;92.70
27978;DHT22;15314;49.248;6.968;2022-08-21T03:34:33;14.60;92.90
27978;DHT22;15314;49.248;6.968;2022-08-21T03:35:34;14.60;93.30
27978;DHT22;15314;49.248;6.968;2022-08-21T03:36:34;14.50;93.50
27978;DHT22;15314;49.248;6.968;2022-08-21T03:37:36;14.40;93.70
27978;DHT22;15314;49.248;6.968;2022-08-21T03:38:37;14.50;93.70
27978;DHT22;15314;49.248;6.968;2022-08-21T03:39:38;14.50;93.70
27978;DHT22;15314;49.248;6.968;2022-08-21T03:40:40;14.50;93.60
27978;DHT22;15314;49.248;6.968;2022-08-21T03:41:41;14.50;93.70
27978;DHT22;15314;49.248;6.968;2022-08-21T03:42:41;14.50;93.50
27978;DHT22;15314;49.248;6.968;2022-08-21T03:43:42;14.60;93.50
27978;DHT22;15314;49.248;6.968;2022-08-21T03:44:43;14.60;93.30
27978;DHT22;15314;49.248;6.968;2022-08-21T03:45:44;14.60;93.40
27978;DHT22;15314;49.248;6.968;2022-08-21T03:46:44;14.60;93.40
27978;DHT22;15314;49.248;6.968;2022-08-21T03:47:51;14.60;93.50
27978;DHT22;15314;49.248;6.968;2022-08-21T03:48:52;14.60;93.40
27978;DHT22;15314;49.248;6.968;2022-08-21T03:49:53;14.50;93.40
27978;DHT22;15314;49.248;6.968;2022-08-21T03:50:54;14.50;93.50
27978;DHT22;15314;49.248;6.968;2022-08-21T03:51:55;14.50;93.30
27978;DHT22;15314;49.248;6.968;2022-08-21T03:52:56;14.50;93.40
27978;DHT22;15314;49.248;6.968;2022-08-21T03:53:57;14.50;93.40
27978;DHT22;15314;49.248;6.968;2022-08-21T03:54:58;14.50;93.30
27978;DHT22;15314;49.248;6.968;2022-08-21T03:55:58;14.50;93.10
27978;DHT22;15314;49.248;6.968;2022-08-21T03:56:59;14.60;93.30
27978;DHT22;15314;49.248;6.968;2022-08-21T03:58:00;14.60;93.30
27978;DHT22;15314;49.248;6.968;2022-08-21T03:59:02;14.60;93.20
27978;DHT22;15314;49.248;6.968;2022-08-21T04:00:04;14.70;93.20
27978;DHT22;15314;49.248;6.968;2022-08-21T04:01:08;14.60;93.30
27978;DHT22;15314;49.248;6.968;2022-08-21T04:02:10;14.60;93.10
27978;DHT22;15314;49.248;6.968;2022-08-21T04:03:11;14.50;93.20
27978;DHT22;15314;49.248;6.968;2022-08-21T04:04:11;14.50;93.30
27978;DHT22;15314;49.248;6.968;2022-08-21T04:05:14;14.50;93.40
27978;DHT22;15314;49.248;6.968;2022-08-21T04:06:15;14.50;93.50
27978;DHT22;15314;49.248;6.968;2022-08-21T04:07:15;14.50;93.50
27978;DHT22;15314;49.248;6.968;2022-08-21T04:08:17;14.50;93.40
27978;DHT22;15314;49.248;6.968;2022-08-21T04:09:19;14.50;93.30
27978;DHT22;15314;49.248;6.968;2022-08-21T04:10:19;14.50;93.50
27978;DHT22;15314;49.248;6.968;2022-08-21T04:11:20;14.60;93.30
27978;DHT22;15314;49.248;6.968;2022-08-21T04:12:21;14.50;93.50
27978;DHT22;15314;49.248;6.968;2022-08-21T04:13:22;14.50;93.80
27978;DHT22;15314;49.248;6.968;2022-08-21T04:14:23;14.50;94.00
27978;DHT22;15314;49.248;6.968;2022-08-21T04:15:25;14.50;94.10
27978;DHT22;15314;49.248;6.968;2022-08-21T04:16:26;14.40;94.10
27978;DHT22;15314;49.248;6.968;2022-08-21T04:17:26;14.30;94.00
27978;DHT22;15314;49.248;6.968;2022-08-21T04:18:27;14.40;94.20
27978;DHT22;15314;49.248;6.968;2022-08-21T04:19:28;14.30;94.00
27978;DHT22;15314;49.248;6.968;2022-08-21T04:20:29;14.40;93.90
27978;DHT22;15314;49.248;6.968;2022-08-21T04:21:30;14.40;93.90
27978;DHT22;15314;49.248;6.968;2022-08-21T04:22:31;14.40;93.90
27978;DHT22;15314;49.248;6.968;2022-08-21T04:23:32;14.40;93.80
27978;DHT22;15314;49.248;6.968;2022-08-21T04:24:32;14.50;93.90
27978;DHT22;15314;49.248;6.968;2022-08-21T04:25:33;14.50;93.80
27978;DHT22;15314;49.248;6.968;2022-08-21T04:26:35;14.50;93.90
27978;DHT22;15314;49.248;6.968;2022-08-21T04:27:36;14.50;93.80
27978;DHT22;15314;49.248;6.968;2022-08-21T04:28:36;14.50;93.80
27978;DHT22;15314;49.248;6.968;2022-08-21T04:29:37;14.40;93.90
27978;DHT22;15314;49.248;6.968;2022-08-21T04:30:37;14.30;94.20
27978;DHT22;15314;49.248;6.968;2022-08-21T04:31:38;14.30;94.40
27978;DHT22;15314;49.248;6.968;2022-08-21T04:32:42;14.30;94.30
27978;DHT22;15314;49.248;6.968;2022-08-21T04:33:44;14.40;94.20
27978;DHT22;15314;49.248;6.968;2022-08-21T04:34:45;14.40;94.50
27978;DHT22;15314;49.248;6.968;2022-08-21T04:35:46;14.30;94.40
27978;DHT22;15314;49.248;6.968;2022-08-21T04:36:47;14.40;94.50
27978;DHT22;15314;49.248;6.968;2022-08-21T04:37:48;14.40;94.60
27978;DHT22;15314;49.248;6.968;2022-08-21T04:38:49;14.30;94.50
27978;DHT22;15314;49.248;6.968;2022-08-21T04:39:49;14.40;94.50
27978;DHT22;15314;49.248;6.968;2022-08-21T04:40:50;14.40;94.40
27978;DHT22;15314;49.248;6.968;2022-08-21T04:41:51;14.40;94.40
27978;DHT22;15314;49.248;6.968;2022-08-21T04:43:00;14.50;94.20
27978;DHT22;15314;49.248;6.968;2022-08-21T04:44:00;14.50;94.20
27978;DHT22;15314;49.248;6.968;2022-08-21T04:45:01;14.40;94.20
27978;DHT22;15314;49.248;6.968;2022-08-21T04:46:02;14.40;94.30
27978;DHT22;15314;49.248;6.968;2022-08-21T04:47:03;14.40;94.10
27978;DHT22;15314;49.248;6.968;2022-08-21T04:48:06;14.50;94.10
27978;DHT22;15314;49.248;6.968;2022-08-21T04:49:07;14.40;94.20
27978;DHT22;15314;49.248;6.968;2022-08-21T04:50:08;14.40;94.30
27978;DHT22;15314;49.248;6.968;2022-08-21T04:51:19;14.30;94.20
27978;DHT22;15314;49.248;6.968;2022-08-21T04:52:23;14.30;94.40
27978;DHT22;15314;49.248;6.968;2022-08-21T04:53:30;14.30;94.70
27978;DHT22;15314;49.248;6.968;2022-08-21T04:54:31;14.40;94.70
27978;DHT22;15314;49.248;6.968;2022-08-21T04:55:32;14.40;94.60
27978;DHT22;15314;49.248;6.968;2022-08-21T04:56:39;14.40;94.40
27978;DHT22;15314;49.248;6.968;2022-08-21T04:57:41;14.30;94.70
27978;DHT22;15314;49.248;6.968;2022-08-21T04:58:42;14.20;94.80
27978;DHT22;15314;49.248;6.968;2022-08-21T04:59:47;14.20;94.70
27978;DHT22;15314;49.248;6.968;2022-08-21T05:00:48;14.20;94.90
27978;DHT22;15314;49.248;6.968;2022-08-21T05:01:49;14.20;95.20
27978;DHT22;15314;49.248;6.968;2022-08-21T05:02:52;14.20;95.50
27978;DHT22;15314;49.248;6.968;2022-08-21T05:03:58;14.10;95.60
27978;DHT22;15314;49.248;6.968;2022-08-21T05:05:00;14.10;95.90
27978;DHT22;15314;49.248;6.968;2022-08-21T05:06:04;14.20;95.50
27978;DHT22;15314;49.248;6.968;2022-08-21T05:07:09;14.30;95.40
27978;DHT22;15314;49.248;6.968;2022-08-21T05:08:12;14.40;95.10
27978;DHT22;15314;49.248;6.968;2022-08-21T05:09:16;14.30;95.20
27978;DHT22;15314;49.248;6.968;2022-08-21T05:10:18;14.30;95.40
27978;DHT22;15314;49.248;6.968;2022-08-21T05:11:19;14.30;95.60
27978;DHT22;15314;49.248;6.968;2022-08-21T05:12:21;14.30;95.70
27978;DHT22;15314;49.248;6.968;2022-08-21T05:13:22;14.30;95.90
27978;DHT22;15314;49.248;6.968;2022-08-21T05:14:23;14.30;95.60
27978;DHT22;15314;49.248;6.968;2022-08-21T05:15:23;14.30;95.50
27978;DHT22;15314;49.248;6.968;2022-08-21T05:16:24;14.30;95.40
27978;DHT22;15314;49.248;6.968;2022-08-21T05:17:25;14.50;95.10
27978;DHT22;15314;49.248;6.968;2022-08-21T05:18:25;14.50;94.90
27978;DHT22;15314;49.248;6.968;2022-08-21T05:19:26;14.60;94.50
27978;DHT22;15314;49.248;6.968;2022-08-21T05:20:28;14.70;94.60
27978;DHT22;15314;49.248;6.968;2022-08-21T05:21:28;14.70;94.90
27978;DHT22;15314;49.248;6.968;2022-08-21T05:22:29;14.70;94.70
27978;DHT22;15314;49.248;6.968;2022-08-21T05:23:30;14.70;94.70
27978;DHT22;15314;49.248;6.968;2022-08-21T05:24:30;14.70;94.70
27978;DHT22;15314;49.248;6.968;2022-08-21T05:25:31;14.80;94.50
27978;DHT22;15314;49.248;6.968;2022-08-21T05:26:32;14.80;94.40
27978;DHT22;15314;49.248;6.968;2022-08-21T05:27:33;14.90;94.20
27978;DHT22;15314;49.248;6.968;2022-08-21T05:28:33;14.90;93.80
27978;DHT22;15314;49.248;6.968;2022-08-21T05:29:34;15.10;93.50
27978;DHT22;15314;49.248;6.968;2022-08-21T05:30:35;15.10;93.40
27978;DHT22;15314;49.248;6.968;2022-08-21T05:31:37;15.10;93.60
27978;DHT22;15314;49.248;6.968;2022-08-21T05:32:37;15.20;93.50
27978;DHT22;15314;49.248;6.968;2022-08-21T05:33:38;15.30;93.40
27978;DHT22;15314;49.248;6.968;2022-08-21T05:34:39;15.40;93.30
27978;DHT22;15314;49.248;6.968;2022-08-21T05:35:40;15.40;93.20
27978;DHT22;15314;49.248;6.968;2022-08-21T05:36:40;15.40;93.10
27978;DHT22;15314;49.248;6.968;2022-08-21T05:37:41;15.40;93.00
27978;DHT22;15314;49.248;6.968;2022-08-21T05:38:42;15.40;92.90
27978;DHT22;15314;49.248;6.968;2022-08-21T05:39:43;15.50;92.90
27978;DHT22;15314;49.248;6.968;2022-08-21T05:40:45;15.50;92.90
27978;DHT22;15314;49.248;6.968;2022-08-21T05:41:46;15.60;92.80
27978;DHT22;15314;49.248;6.968;2022-08-21T05:42:48;15.60;92.80
27978;DHT22;15314;49.248;6.968;2022-08-21T05:43:49;15.60;92.90
27978;DHT22;15314;49.248;6.968;2022-08-21T05:44:49;15.70;92.90
27978;DHT22;15314;49.248;6.968;2022-08-21T05:45:50;15.80;92.40
27978;DHT22;15314;49.248;6.968;2022-08-21T05:46:50;15.80;92.40
27978;DHT22;15314;49.248;6.968;2022-08-21T05:47:51;15.80;92.30
27978;DHT22;15314;49.248;6.968;2022-08-21T05:48:52;15.90;92.00
27978;DHT22;15314;49.248;6.968;2022-08-21T05:49:52;16.00;91.90
27978;DHT22;15314;49.248;6.968;2022-08-21T05:50:53;16.00;92.00
27978;DHT22;15314;49.248;6.968;2022-08-21T05:51:54;16.00;92.10
27978;DHT22;15314;49.248;6.968;2022-08-21T05:52:55;16.10;92.00
27978;DHT22;15314;49.248;6.968;2022-08-21T05:53:55;16.10;91.80
27978;DHT22;15314;49.248;6.968;2022-08-21T05:54:56;16.20;91.70
27978;DHT22;15314;49.248;6.968;2022-08-21T05:55:56;16.30;91.60
27978;DHT22;15314;49.248;6.968;2022-08-21T05:56:57;16.30;91.40
27978;DHT22;15314;49.248;6.968;2022-08-21T05:57:57;16.30;91.10
27978;DHT22;15314;49.248;6.968;2022-08-21T05:58:59;16.40;91.00
27978;DHT22;15314;49.248;6.968;2022-08-21T06:00:00;16.40;91.10
27978;DHT22;15314;49.248;6.968;2022-08-21T06:01:01;16.40;90.80
27978;DHT22;15314;49.248;6.968;2022-08-21T06:02:03;16.40;90.80
27978;DHT22;15314;49.248;6.968;2022-08-21T06:03:04;16.50;90.90
27978;DHT22;15314;49.248;6.968;2022-08-21T06:04:04;16.50;90.90
27978;DHT22;15314;49.248;6.968;2022-08-21T06:05:06;16.50;90.90
27978;DHT22;15314;49.248;6.968;2022-08-21T06:06:07;16.50;90.90
27978;DHT22;15314;49.248;6.968;2022-08-21T06:07:08;16.60;90.80
27978;DHT22;15314;49.248;6.968;2022-08-21T06:08:09;16.50;90.90
27978;DHT22;15314;49.248;6.968;2022-08-21T06:09:09;16.60;91.20
27978;DHT22;15314;49.248;6.968;2022-08-21T06:10:10;16.60;90.80
27978;DHT22;15314;49.248;6.968;2022-08-21T06:11:11;16.70;90.70
27978;DHT22;15314;49.248;6.968;2022-08-21T06:12:12;16.70;90.80
27978;DHT22;15314;49.248;6.968;2022-08-21T06:13:14;16.70;90.60
27978;DHT22;15314;49.248;6.968;2022-08-21T06:14:14;16.80;90.50
27978;DHT22;15314;49.248;6.968;2022-08-21T06:15:15;16.70;90.10
27978;DHT22;15314;49.248;6.968;2022-08-21T06:16:16;16.80;90.10
27978;DHT22;15314;49.248;6.968;2022-08-21T06:17:18;16.80;90.00
27978;DHT22;15314;49.248;6.968;2022-08-21T06:18:18;16.90;89.90
27978;DHT22;15314;49.248;6.968;2022-08-21T06:19:19;17.00;89.50
27978;DHT22;15314;49.248;6.968;2022-08-21T06:20:19;17.10;89.00
27978;DHT22;15314;49.248;6.968;2022-08-21T06:21:20;17.20;89.40
27978;DHT22;15314;49.248;6.968;2022-08-21T06:22:21;17.20;89.50
27978;DHT22;15314;49.248;6.968;2022-08-21T06:23:21;17.40;89.20
27978;DHT22;15314;49.248;6.968;2022-08-21T06:24:22;17.20;88.50
27978;DHT22;15314;49.248;6.968;2022-08-21T06:25:23;17.20;88.70
27978;DHT22;15314;49.248;6.968;2022-08-21T06:26:24;17.20;88.80
27978;DHT22;15314;49.248;6.968;2022-08-21T06:27:25;17.20;89.40
27978;DHT22;15314;49.248;6.968;2022-08-21T06:28:26;17.30;88.70
27978;DHT22;15314;49.248;6.968;2022-08-21T06:29:26;17.30;88.90
27978;DHT22;15314;49.248;6.968;2022-08-21T06:30:27;17.40;89.80